Time;durP1;ratioP1;P1;durP2;ratioP2;P2;SDS_P1;SDS_P2;PMS_P1;PMS_P2;Temp;Humidity;BMP_temperature;BMP_pressure;BME280_temperature;BME280_humidity;BME280_pressure;Samples;Min_cycle;Max_cycle;Signal;HPM_P1;HPM_P2
2022/02/11 00:00:27;;;;;;;7.05;2.80;;;;;;;5.34;100.00;101030.84;5233812;28;20071;-78
2022/02/11 00:08:17;;;;;;;4.68;2.25;;;;;;;5.58;100.00;101028.06;5227321;28;20159;-78
2022/02/11 00:10:47;;;;;;;3.60;2.35;;;;;;;5.45;100.00;101034.22;5229263;28;20020;-78
2022/02/11 00:13:17;;;;;;;4.50;2.22;;;;;;;5.48;100.00;101026.41;5236260;28;20073;-78
2022/02/11 00:15:51;;;;;;;4.80;1.55;;;;;;;5.58;100.00;101025.47;5233668;28;20024;-78
2022/02/11 00:18:22;;;;;;;4.18;1.77;;;;;;;5.56;100.00;101022.06;5235247;28;20218;-78
2022/02/11 00:20:52;;;;;;;3.53;2.10;;;;;;;5.44;100.00;101027.31;5230599;28;20021;-78
2022/02/11 00:23:23;;;;;;;3.85;1.83;;;;;;;5.43;100.00;101029.03;5231858;28;20090;-78
2022/02/11 00:26:01;;;;;;;6.05;2.00;;;;;;;5.37;100.00;101025.66;5226095;28;20029;-78
2022/02/11 00:33:45;;;;;;;4.03;1.63;;;;;;;5.35;100.00;101017.00;5234198;28;20048;-79
2022/02/11 00:36:16;;;;;;;3.60;1.58;;;;;;;5.22;100.00;101018.00;5231460;28;20413;-78
2022/02/11 00:42:57;;;;;;;2.92;1.30;;;;;;;5.13;100.00;101018.03;5230788;28;20035;-79
2022/02/11 01:04:19;;;;;;;5.90;1.30;;;;;;;5.30;100.00;101018.78;5232594;28;20091;-78
2022/02/11 01:06:50;;;;;;;4.35;1.48;;;;;;;5.16;100.00;101014.59;5225771;28;20025;-78
2022/02/11 01:09:20;;;;;;;3.65;1.60;;;;;;;5.26;100.00;101009.31;5234397;28;20398;-78
2022/02/11 01:11:56;;;;;;;5.18;1.70;;;;;;;5.09;100.00;101011.16;5230190;28;20025;-78
2022/02/11 01:14:36;;;;;;;4.57;1.70;;;;;;;5.12;100.00;101010.31;5227801;28;20029;-79
2022/02/11 01:17:17;;;;;;;4.07;1.70;;;;;;;5.18;100.00;101021.44;5232001;28;20070;-78
2022/02/11 01:22:43;;;;;;;5.03;2.33;;;;;;;5.17;100.00;101011.97;5231411;28;20178;-78
2022/02/11 01:28:34;;;;;;;6.03;2.45;;;;;;;5.11;100.00;101006.84;5226478;28;20028;-79
2022/02/11 01:31:57;;;;;;;7.97;3.55;;;;;;;5.18;100.00;101005.91;5228245;28;20029;-78
2022/02/11 01:34:22;;;;;;;6.60;2.78;;;;;;;5.23;100.00;101004.16;5214913;28;20041;-79
2022/02/11 02:11:34;;;;;;;7.05;2.80;;;;;;;5.00;100.00;100987.91;5235586;28;20017;-78
2022/02/11 02:58:28;;;;;;;9.00;2.78;;;;;;;4.86;100.00;100966.44;5237317;28;20036;-78
2022/02/11 03:01:33;;;;;;;9.98;3.05;;;;;;;4.87;100.00;100950.03;5229586;28;20021;-78
2022/02/11 03:34:40;;;;;;;8.48;2.83;;;;;;;4.59;100.00;100948.47;5223191;28;20166;-78
2022/02/11 03:51:47;;;;;;;9.80;3.28;;;;;;;4.83;100.00;100943.13;5232407;28;20154;-81
2022/02/11 04:20:26;;;;;;;7.82;3.72;;;;;;;4.77;100.00;100953.53;5228577;28;20094;-80
2022/02/11 04:20:43;;;;;;;13.90;5.30;;;;;;;4.84;100.00;100951.78;5226343;28;20044;-80
2022/02/11 04:56:08;;;;;;;14.27;5.68;;;;;;;4.08;100.00;100953.88;5217601;28;20025;-79
2022/02/11 05:01:26;;;;;;;11.00;5.18;;;;;;;3.96;100.00;100953.91;5220392;28;20040;-79
2022/02/11 05:03:57;;;;;;;9.30;5.32;;;;;;;4.16;100.00;100961.63;5229198;28;20036;-79
2022/02/11 05:06:27;;;;;;;12.40;5.47;;;;;;;4.32;100.00;100958.09;5231115;28;20032;-79
2022/02/11 05:08:59;;;;;;;9.98;5.03;;;;;;;4.25;100.00;100957.28;5230220;28;20754;-80
2022/02/11 05:11:30;;;;;;;8.77;4.28;;;;;;;4.13;100.00;100951.28;5232359;28;20024;-79
2022/02/11 05:14:00;;;;;;;9.13;4.45;;;;;;;4.17;100.00;100948.69;5225282;28;20020;-79
2022/02/11 05:16:31;;;;;;;8.20;4.70;;;;;;;4.03;100.00;100954.75;5232439;28;20025;-78
2022/02/11 05:19:01;;;;;;;8.73;4.43;;;;;;;3.95;100.00;100952.19;5229708;28;20021;-79
2022/02/11 05:21:32;;;;;;;11.00;4.82;;;;;;;3.94;100.00;100953.06;5227093;28;20406;-78
2022/02/11 05:24:02;;;;;;;9.48;4.82;;;;;;;3.92;100.00;100956.53;5232146;28;20078;-79
2022/02/11 05:26:32;;;;;;;12.73;5.47;;;;;;;3.95;100.00;100954.78;5221987;28;20032;-79
2022/02/11 05:29:02;;;;;;;12.40;5.40;;;;;;;3.81;100.00;100958.28;5233972;28;20032;-80
2022/02/11 05:31:33;;;;;;;12.20;6.00;;;;;;;3.74;100.00;100960.00;5235722;28;20111;-79
2022/02/11 05:34:03;;;;;;;11.38;5.65;;;;;;;3.67;100.00;100955.75;5234339;28;20324;-79
2022/02/11 05:36:34;;;;;;;10.82;5.90;;;;;;;3.61;100.00;100955.72;5235649;28;20029;-79
2022/02/11 05:39:04;;;;;;;16.30;6.10;;;;;;;3.52;100.00;100938.53;5233930;28;20432;-79
2022/02/11 05:41:34;;;;;;;11.57;6.32;;;;;;;3.48;100.00;100944.53;5223867;28;20029;-79
2022/02/11 05:44:05;;;;;;;12.60;6.43;;;;;;;3.44;100.00;100950.59;5228637;28;20028;-79
2022/02/11 05:46:35;;;;;;;14.75;7.20;;;;;;;3.46;100.00;100954.91;5232881;28;20052;-80
2022/02/11 05:49:05;;;;;;;13.50;6.53;;;;;;;3.19;100.00;100949.72;5225712;28;20422;-79
2022/02/11 05:51:36;;;;;;;13.52;6.78;;;;;;;3.18;100.00;100947.19;5232147;28;20397;-79
2022/02/11 05:54:06;;;;;;;12.70;6.53;;;;;;;3.10;100.00;100942.00;5232447;28;20029;-79
2022/02/11 05:56:36;;;;;;;9.80;5.82;;;;;;;2.97;100.00;100941.97;5221073;28;20739;-79
2022/02/11 05:59:06;;;;;;;11.48;5.97;;;;;;;3.03;100.00;100945.44;5232697;28;20021;-79
2022/02/11 06:01:37;;;;;;;9.80;6.35;;;;;;;3.02;100.00;100945.44;5231698;28;20482;-79
2022/02/11 06:04:07;;;;;;;11.63;5.35;;;;;;;3.13;100.00;100941.13;5234761;28;20369;-79
2022/02/11 06:06:37;;;;;;;14.05;5.75;;;;;;;3.00;100.00;100932.53;5234124;28;20222;-79
2022/02/11 06:09:07;;;;;;;8.70;5.43;;;;;;;2.94;100.00;100931.66;5233199;28;20024;-80
2022/02/11 06:11:38;;;;;;;10.30;5.35;;;;;;;2.85;100.00;100932.50;5233682;28;20129;-79
2022/02/11 06:14:08;;;;;;;11.77;5.40;;;;;;;2.71;100.00;100941.09;5234335;28;20121;-79
2022/02/11 06:16:39;;;;;;;11.65;5.32;;;;;;;2.87;100.00;100930.78;5216652;28;20410;-79
2022/02/11 06:19:09;;;;;;;9.10;5.75;;;;;;;2.81;100.00;100938.53;5221986;28;20041;-80
2022/02/11 06:21:40;;;;;;;11.20;5.03;;;;;;;2.79;100.00;100936.78;5223615;28;20048;-80
2022/02/11 06:24:10;;;;;;;14.13;5.70;;;;;;;2.71;100.00;100946.25;5231092;28;20053;-79
2022/02/11 06:26:41;;;;;;;11.30;5.97;;;;;;;2.81;100.00;100942.81;5224109;28;20036;-80
2022/02/11 06:29:13;;;;;;;9.13;5.00;;;;;;;2.85;100.00;100950.56;5230268;28;20028;-80
2022/02/11 06:31:43;;;;;;;11.55;5.72;;;;;;;2.79;100.00;100952.28;5233361;28;20025;-80
2022/02/11 06:34:13;;;;;;;10.38;5.85;;;;;;;2.81;100.00;100942.81;5232954;28;20020;-80
2022/02/11 06:36:44;;;;;;;10.48;5.65;;;;;;;2.91;100.00;100950.59;5233975;28;20066;-79
2022/02/11 06:39:14;;;;;;;10.60;6.00;;;;;;;2.86;100.00;100948.88;5233346;28;20037;-81
2022/02/11 06:41:44;;;;;;;10.93;5.70;;;;;;;2.99;100.00;100945.44;5233884;28;20067;-79
2022/02/11 06:44:14;;;;;;;13.00;6.20;;;;;;;2.97;100.00;100945.44;5233186;28;20032;-80
2022/02/11 06:46:45;;;;;;;10.30;6.07;;;;;;;3.05;100.00;100948.03;5232737;28;20024;-79
2022/02/11 06:49:15;;;;;;;11.75;6.13;;;;;;;3.24;100.00;100945.44;5225160;28;20431;-79
2022/02/11 06:51:45;;;;;;;13.50;6.32;;;;;;;3.22;100.00;100946.31;5225951;28;20039;-80
2022/02/11 06:54:15;;;;;;;14.95;6.55;;;;;;;3.36;100.00;100937.69;5231270;28;20114;-79
2022/02/11 06:56:46;;;;;;;11.73;6.20;;;;;;;3.44;100.00;100948.00;5222370;28;20047;-80
2022/02/11 06:59:16;;;;;;;11.50;6.47;;;;;;;3.50;100.00;100956.59;5231657;28;20041;-81
2022/02/11 07:01:47;;;;;;;15.43;6.82;;;;;;;3.47;100.00;100961.78;5233768;28;20603;-81
2022/02/11 07:04:17;;;;;;;12.35;6.38;;;;;;;3.56;100.00;100961.75;5232104;28;20399;-80
2022/02/11 07:06:48;;;;;;;15.23;6.50;;;;;;;3.56;100.00;100959.16;5234408;28;20024;-80
2022/02/11 07:09:18;;;;;;;14.60;6.60;;;;;;;3.53;100.00;100960.94;5232424;28;20471;-80
2022/02/11 07:11:48;;;;;;;16.17;6.75;;;;;;;3.47;100.00;100959.19;5234028;28;20051;-80
2022/02/11 07:14:18;;;;;;;19.92;7.15;;;;;;;3.65;100.00;100951.44;5231974;28;20056;-81
2022/02/11 07:16:49;;;;;;;16.20;7.07;;;;;;;3.50;100.00;100960.94;5233737;28;20032;-81
2022/02/11 07:19:19;;;;;;;14.23;7.13;;;;;;;3.59;100.00;100957.47;5223998;28;20032;-81
2022/02/11 07:21:49;;;;;;;13.80;7.10;;;;;;;3.61;100.00;100955.72;5222080;28;20035;-81
2022/02/11 07:24:20;;;;;;;18.30;7.25;;;;;;;3.59;100.00;100966.94;5230823;28;20032;-80
2022/02/11 07:26:50;;;;;;;18.77;7.50;;;;;;;3.64;100.00;100954.88;5222114;28;20050;-81
2022/02/11 07:29:20;;;;;;;15.77;7.32;;;;;;;3.59;100.00;100957.47;5231686;28;20021;-81
2022/02/11 07:31:51;;;;;;;15.20;7.07;;;;;;;3.49;100.00;100956.59;5233894;28;20028;-81
2022/02/11 07:34:21;;;;;;;14.52;6.68;;;;;;;3.62;100.00;100946.28;5227206;28;20104;-81
2022/02/11 07:36:51;;;;;;;12.63;6.85;;;;;;;3.63;100.00;100953.16;5234035;28;20180;-81
2022/02/11 07:39:23;;;;;;;17.38;6.97;;;;;;;3.61;100.00;100950.56;5230747;28;20029;-81
2022/02/11 07:41:54;;;;;;;16.35;6.75;;;;;;;3.68;100.00;100947.13;5233776;28;20042;-81
2022/02/11 07:44:24;;;;;;;12.10;6.63;;;;;;;3.66;100.00;100954.03;5230854;28;20272;-82
2022/02/11 07:46:54;;;;;;;12.13;6.28;;;;;;;3.63;100.00;100959.16;5233886;28;20592;-81
2022/02/11 07:49:24;;;;;;;16.58;7.25;;;;;;;3.81;100.00;100955.69;5218719;28;20025;-82
2022/02/11 07:51:55;;;;;;;14.23;6.95;;;;;;;3.67;100.00;100958.31;5225499;28;20111;-81
2022/02/11 07:54:27;;;;;;;14.88;7.63;;;;;;;3.90;100.00;100964.28;5227717;28;20090;-81
2022/02/11 07:56:57;;;;;;;14.77;7.18;;;;;;;3.84;100.00;100968.59;5219334;28;20478;-81
2022/02/11 07:59:27;;;;;;;13.93;7.55;;;;;;;3.93;100.00;100958.25;5230188;28;20040;-81
2022/02/11 08:01:58;;;;;;;14.65;7.28;;;;;;;4.10;100.00;100962.50;5231178;28;20029;-80
2022/02/11 08:04:29;;;;;;;15.55;7.22;;;;;;;4.10;100.00;100957.31;5229729;28;20056;-81
2022/02/11 08:06:59;;;;;;;11.77;7.55;;;;;;;4.26;100.00;100950.38;5228157;28;20037;-81
2022/02/11 08:09:29;;;;;;;14.57;7.13;;;;;;;4.21;100.00;100960.75;5229688;28;20179;-81
2022/02/11 08:12:00;;;;;;;12.27;6.70;;;;;;;4.29;100.00;100960.72;5229286;28;20060;-81
2022/02/11 08:14:30;;;;;;;12.27;6.80;;;;;;;4.37;100.00;100975.34;5232495;28;20026;-81
2022/02/11 08:17:01;;;;;;;12.63;6.88;;;;;;;4.38;100.00;100958.06;5229913;28;20060;-81
2022/02/11 08:19:31;;;;;;;12.48;6.50;;;;;;;4.55;100.00;100969.19;5233123;28;20028;-81
2022/02/11 08:22:01;;;;;;;11.15;6.05;;;;;;;4.51;100.00;100972.69;5232022;28;20029;-82
2022/02/11 08:24:31;;;;;;;12.13;6.57;;;;;;;4.43;100.00;100977.88;5230241;28;20040;-82
2022/02/11 08:27:02;;;;;;;10.85;6.07;;;;;;;4.51;100.00;100970.09;5225583;28;20051;-81
2022/02/11 08:29:35;;;;;;;8.13;5.10;;;;;;;4.56;100.00;100978.69;5234538;28;20027;-82
2022/02/11 08:32:06;;;;;;;8.45;4.97;;;;;;;4.53;100.00;100971.81;5235252;28;20023;-81
2022/02/11 08:34:36;;;;;;;10.35;5.22;;;;;;;4.63;100.00;100988.16;5235570;28;20033;-82
2022/02/11 08:37:07;;;;;;;7.78;5.35;;;;;;;4.68;100.00;100976.03;5228223;28;20024;-81
2022/02/11 08:39:38;;;;;;;8.02;4.55;;;;;;;4.55;100.00;100988.19;5225709;28;20375;-82
2022/02/11 08:42:09;;;;;;;9.10;5.38;;;;;;;4.64;100.00;100988.13;5233767;28;20507;-80
2022/02/11 08:44:39;;;;;;;9.00;5.03;;;;;;;4.58;100.00;100985.56;5234039;28;20032;-82
2022/02/11 08:47:09;;;;;;;6.85;4.72;;;;;;;4.72;100.00;100996.72;5235049;28;20024;-82
2022/02/11 08:49:40;;;;;;;9.23;4.65;;;;;;;4.77;100.00;101000.13;5234425;28;20032;-81
2022/02/11 08:52:10;;;;;;;7.20;4.25;;;;;;;4.75;100.00;100991.53;5233583;28;20499;-81
2022/02/11 08:54:40;;;;;;;7.50;4.70;;;;;;;4.84;100.00;100996.63;5230295;28;20021;-81
2022/02/11 08:57:10;;;;;;;7.30;4.80;;;;;;;4.67;100.00;100997.63;5224961;28;20471;-81
2022/02/11 08:59:41;;;;;;;7.18;4.38;;;;;;;4.82;100.00;100993.19;5236104;28;20029;-82
2022/02/11 09:02:12;;;;;;;6.85;3.63;;;;;;;4.88;100.00;100997.50;5238318;28;20031;-80
2022/02/11 09:04:43;;;;;;;5.75;3.90;;;;;;;5.02;100.00;100995.69;5239707;28;20037;-82
2022/02/11 09:07:14;;;;;;;5.22;3.50;;;;;;;4.94;100.00;100998.31;5234444;28;20198;-82
2022/02/11 09:09:44;;;;;;;12.40;4.22;;;;;;;4.86;100.00;101004.41;5229215;28;20143;-81
2022/02/11 09:12:14;;;;;;;5.82;3.50;;;;;;;4.96;100.00;101000.91;5239495;28;20467;-82
2022/02/11 09:14:45;;;;;;;4.65;3.28;;;;;;;5.07;100.00;101012.91;5237819;28;20124;-81
2022/02/11 09:17:15;;;;;;;7.43;3.50;;;;;;;5.20;100.00;101006.78;5226645;28;20117;-81
2022/02/11 09:19:47;;;;;;;5.82;2.90;;;;;;;5.38;100.00;101010.09;5231300;28;20032;-81
2022/02/11 09:22:20;;;;;;;5.25;2.83;;;;;;;5.45;100.00;101013.50;5227225;28;20027;-81
2022/02/11 09:24:53;;;;;;;4.05;2.47;;;;;;;5.27;100.00;101017.94;5229328;28;20036;-79
2022/02/11 09:27:23;;;;;;;5.55;2.60;;;;;;;5.46;100.00;101017.78;5225471;28;20025;-81
2022/02/11 09:29:54;;;;;;;5.78;2.58;;;;;;;5.44;100.00;101022.13;5237639;28;20035;-81
2022/02/11 09:32:24;;;;;;;4.20;2.53;;;;;;;5.51;100.00;101018.63;5232533;28;20036;-81
2022/02/11 09:34:54;;;;;;;4.55;2.35;;;;;;;5.35;100.00;101032.56;5227883;28;20325;-79
2022/02/11 09:37:25;;;;;;;6.20;2.20;;;;;;;5.34;100.00;101023.06;5223640;28;20588;-80
2022/02/11 09:39:56;;;;;;;4.75;2.20;;;;;;;5.40;100.00;101017.84;5236384;28;20024;-81
2022/02/11 09:42:27;;;;;;;5.13;2.40;;;;;;;5.31;100.00;101024.84;5223640;28;20172;-83
2022/02/11 09:44:59;;;;;;;4.20;2.10;;;;;;;5.49;100.00;101031.59;5232873;28;20024;-81
2022/02/11 09:47:29;;;;;;;4.78;1.92;;;;;;;5.52;100.00;101025.50;5231900;28;20382;-81
2022/02/11 09:49:59;;;;;;;4.55;1.90;;;;;;;5.50;100.00;101022.06;5236220;28;20020;-81
2022/02/11 09:52:37;;;;;;;7.57;2.50;;;;;;;5.51;100.00;101034.16;5233496;28;20021;-81
2022/02/11 09:57:59;;;;;;;5.68;2.10;;;;;;;5.67;100.00;101039.22;5229126;28;20166;-81
2022/02/11 10:00:30;;;;;;;4.38;1.95;;;;;;;5.64;100.00;101038.38;5233942;28;20120;-81
2022/02/11 10:03:18;;;;;;;5.60;1.73;;;;;;;5.52;100.00;101041.06;5235990;28;20262;-81
2022/02/11 10:05:56;;;;;;;3.92;1.58;;;;;;;5.51;100.00;101044.53;5236118;28;20025;-81
2022/02/11 10:08:29;;;;;;;3.20;1.30;;;;;;;5.59;100.00;101043.59;5221374;28;20032;-81
2022/02/11 10:11:00;;;;;;;3.75;1.38;;;;;;;5.99;100.00;101045.03;5227852;28;20107;-80
2022/02/11 10:13:40;;;;;;;5.65;1.88;;;;;;;6.06;100.00;101056.19;5233089;28;20023;-81
2022/02/11 10:16:12;;;;;;;3.95;1.10;;;;;;;6.14;100.00;101060.44;5234387;28;20031;-81
2022/02/11 10:18:48;;;;;;;3.42;1.17;;;;;;;5.99;100.00;101067.50;5234676;28;20063;-81
2022/02/11 10:21:23;;;;;;;2.50;1.27;;;;;;;6.09;100.00;101069.13;5232837;28;20115;-81
2022/02/11 10:23:54;;;;;;;2.00;0.77;;;;;;;5.95;100.00;101073.59;5232086;28;20039;-81
2022/02/11 10:26:26;;;;;;;4.53;1.40;;;;;;;5.79;100.00;101077.19;5224574;28;20025;-81
2022/02/11 10:28:57;;;;;;;4.68;1.50;;;;;;;5.83;100.00;101084.06;5232949;28;20024;-81
2022/02/11 10:31:35;;;;;;;3.33;0.90;;;;;;;5.66;100.00;101085.91;5231645;28;20100;-82
2022/02/11 10:34:12;;;;;;;2.28;1.00;;;;;;;5.75;100.00;101091.03;5233460;28;20107;-81
2022/02/11 10:36:48;;;;;;;4.95;1.00;;;;;;;5.56;100.00;101094.63;5234390;28;20365;-82
2022/02/11 10:39:25;;;;;;;4.03;1.40;;;;;;;5.57;100.00;101098.94;5222337;28;20025;-82
2022/02/11 10:41:58;;;;;;;3.35;0.93;;;;;;;5.36;100.00;101096.47;5231048;28;20045;-81
2022/02/11 10:44:31;;;;;;;1.52;0.60;;;;;;;5.28;100.00;101100.84;5235345;28;20028;-82
2022/02/11 10:47:04;;;;;;;5.45;0.80;;;;;;;5.23;100.00;101105.22;5232303;28;20388;-81
2022/02/11 10:49:46;;;;;;;1.75;0.50;;;;;;;5.11;100.00;101120.81;5231629;28;20102;-82
2022/02/11 10:52:19;;;;;;;3.35;0.85;;;;;;;5.28;100.00;101110.34;5232586;28;20074;-81
2022/02/11 10:54:52;;;;;;;2.70;0.60;;;;;;;5.13;100.00;101113.03;5229436;28;20380;-81
2022/02/11 10:57:26;;;;;;;2.90;1.10;;;;;;;5.12;100.00;101116.50;5223576;28;20445;-81
2022/02/11 10:59:58;;;;;;;2.35;0.90;;;;;;;5.16;100.00;101102.66;5227990;28;20032;-81
2022/02/11 11:02:28;;;;;;;4.20;0.90;;;;;;;5.32;100.00;101105.13;5234251;28;20020;-81
2022/02/11 11:04:58;;;;;;;4.70;0.77;;;;;;;5.45;100.00;101119.75;5231469;28;20021;-81
2022/02/11 11:07:29;;;;;;;3.20;0.90;;;;;;;5.69;100.00;101119.56;5229845;28;20369;-80
2022/02/11 11:10:01;;;;;;;3.20;0.98;;;;;;;5.58;100.00;101126.59;5222965;28;20056;-81
2022/02/11 11:12:35;;;;;;;2.80;0.70;;;;;;;5.65;100.00;101130.84;5235844;28;20024;-81
2022/02/11 11:15:06;;;;;;;2.15;0.70;;;;;;;5.53;100.00;101134.38;5236521;28;20029;-82
2022/02/11 11:17:40;;;;;;;1.83;0.60;;;;;;;5.45;100.00;101130.13;5231687;28;20412;-81
2022/02/11 11:20:11;;;;;;;4.28;0.85;;;;;;;5.55;100.00;101134.38;5233115;28;20029;-81
2022/02/11 11:22:47;;;;;;;1.42;0.70;;;;;;;5.64;100.00;101145.56;5229696;28;20436;-81
2022/02/11 11:25:17;;;;;;;2.40;0.50;;;;;;;5.60;100.00;101140.41;5225221;28;20024;-80
2022/02/11 11:27:57;;;;;;;1.92;0.63;;;;;;;5.51;100.00;101143.03;5226363;28;20402;-81
2022/02/11 11:30:37;;;;;;;3.47;1.00;;;;;;;5.71;100.00;101152.41;5227046;28;20368;-81
2022/02/11 11:33:18;;;;;;;2.90;0.75;;;;;;;5.73;100.00;101155.00;5232908;28;20025;-82
2022/02/11 11:36:04;;;;;;;1.90;0.70;;;;;;;5.59;100.00;101156.81;5233628;28;20040;-81
2022/02/11 11:38:44;;;;;;;2.22;0.82;;;;;;;5.65;100.00;101169.72;5221983;28;20359;-82
2022/02/11 11:41:26;;;;;;;3.53;0.93;;;;;;;5.54;100.00;101166.38;5231166;28;20219;-82
2022/02/11 11:43:59;;;;;;;2.88;0.80;;;;;;;5.65;100.00;101168.03;5226490;28;20295;-81
2022/02/11 11:46:32;;;;;;;1.20;0.63;;;;;;;5.49;100.00;101184.53;5233218;28;20422;-81
2022/02/11 11:49:05;;;;;;;1.05;0.55;;;;;;;5.56;100.00;101182.78;5229683;28;20375;-81
2022/02/11 11:51:35;;;;;;;1.90;0.60;;;;;;;5.54;100.00;101179.31;5231434;28;20437;-81
2022/02/11 11:54:18;;;;;;;1.37;0.80;;;;;;;5.53;100.00;101174.97;5231274;28;20036;-81
2022/02/11 11:57:00;;;;;;;2.35;1.20;;;;;;;5.41;100.00;101185.44;5220847;28;20303;-81
2022/02/11 11:59:48;;;;;;;2.55;1.30;;;;;;;5.45;100.00;101176.78;5225659;28;20279;-81
2022/02/11 12:02:27;;;;;;;2.83;1.50;;;;;;;5.41;100.00;101177.66;5224716;28;20417;-81
2022/02/11 12:04:58;;;;;;;2.78;1.30;;;;;;;5.48;100.00;101179.34;5219629;28;20535;-81
2022/02/11 12:07:30;;;;;;;3.83;0.90;;;;;;;5.57;100.00;101190.53;5225485;28;20043;-81
2022/02/11 12:10:05;;;;;;;3.08;0.82;;;;;;;5.54;100.00;101189.69;5229255;28;20108;-81
2022/02/11 12:12:36;;;;;;;2.07;0.60;;;;;;;5.51;100.00;101184.50;5230962;28;20498;-80
2022/02/11 12:15:09;;;;;;;2.38;0.73;;;;;;;5.67;100.00;101201.69;5230891;28;20028;-81
2022/02/11 12:17:39;;;;;;;1.67;0.70;;;;;;;5.72;100.00;101198.22;5230354;28;20071;-81
2022/02/11 12:20:10;;;;;;;1.67;1.08;;;;;;;5.79;100.00;101201.66;5232493;28;20508;-81
2022/02/11 12:27:19;;;;;;;4.85;1.40;;;;;;;5.67;100.00;101219.84;5225816;28;20028;-81
2022/02/11 12:28:21;;;;;;;2.13;0.90;;;;;;;5.62;100.00;101229.38;5233079;28;20039;-80
2022/02/11 12:30:52;;;;;;;2.15;1.00;;;;;;;5.81;100.00;101234.50;5229661;28;20013;-81
2022/02/11 12:33:22;;;;;;;4.65;1.70;;;;;;;5.78;100.00;101246.59;5233444;28;20059;-81
2022/02/11 12:35:52;;;;;;;3.97;0.98;;;;;;;5.72;100.00;101236.25;5228131;28;20021;-83
2022/02/11 12:38:26;;;;;;;3.20;1.35;;;;;;;5.84;100.00;101246.56;5219511;28;20032;-83
2022/02/11 12:40:56;;;;;;;2.15;1.20;;;;;;;5.79;100.00;101254.41;5219450;28;20478;-81
2022/02/11 12:43:29;;;;;;;4.82;1.83;;;;;;;5.84;100.00;101257.81;5223862;28;20048;-83
2022/02/11 12:46:02;;;;;;;13.88;6.65;;;;;;;5.92;100.00;101255.19;5221106;28;20048;-82
2022/02/11 12:48:33;;;;;;;5.38;1.88;;;;;;;5.81;100.00;101267.34;5223161;28;20032;-82
2022/02/11 12:51:07;;;;;;;3.70;1.75;;;;;;;5.91;100.00;101272.47;5222723;28;20029;-81
2022/02/11 12:53:38;;;;;;;3.13;1.07;;;;;;;5.96;100.00;101277.63;5222377;28;20033;-82
2022/02/11 12:56:12;;;;;;;2.60;1.15;;;;;;;5.85;100.00;101284.59;5215285;28;20044;-82
2022/02/11 12:58:43;;;;;;;4.22;1.30;;;;;;;5.90;100.00;101283.72;5219050;28;20545;-81
2022/02/11 13:01:13;;;;;;;1.45;0.95;;;;;;;6.02;100.00;101295.75;5221963;28;20065;-82
2022/02/11 13:03:47;;;;;;;2.53;0.95;;;;;;;5.99;100.00;101308.75;5222919;28;20427;-82
2022/02/11 13:06:18;;;;;;;3.35;1.10;;;;;;;5.94;100.00;101316.53;5222919;28;20478;-82
2022/02/11 13:08:48;;;;;;;4.05;1.30;;;;;;;5.85;100.00;101315.72;5215133;28;20060;-80
2022/02/11 13:11:18;;;;;;;4.68;1.33;;;;;;;5.84;100.00;101322.66;5221173;28;20024;-81
2022/02/11 13:14:00;;;;;;;1.42;0.70;;;;;;;5.69;100.00;101334.78;5222589;28;20441;-81
2022/02/11 13:16:32;;;;;;;2.28;0.82;;;;;;;5.81;100.00;101347.75;5220785;28;20028;-81
2022/02/11 13:19:17;;;;;;;4.68;1.50;;;;;;;5.87;100.00;101365.84;5225030;28;20025;-82
2022/02/11 13:21:47;;;;;;;3.75;1.23;;;;;;;6.03;100.00;101373.59;5221679;28;20035;-81
2022/02/11 13:24:18;;;;;;;2.28;1.20;;;;;;;6.12;100.00;101380.47;5224588;28;20032;-81
2022/02/11 13:26:49;;;;;;;1.35;0.80;;;;;;;6.12;100.00;101403.81;5215773;28;20029;-81
2022/02/11 13:29:19;;;;;;;3.97;2.05;;;;;;;6.06;100.00;101401.25;5222540;28;20029;-82
2022/02/11 13:31:51;;;;;;;3.47;1.50;;;;;;;5.99;100.00;101404.72;5224711;28;20108;-81
2022/02/11 13:34:21;;;;;;;2.42;1.15;;;;;;;5.91;100.00;101427.25;5223440;28;20025;-82
2022/02/11 13:37:02;;;;;;;3.53;1.33;;;;;;;5.91;100.00;101428.09;5229247;28;20029;-81
2022/02/11 13:39:32;;;;;;;2.60;1.20;;;;;;;5.84;100.00;101443.69;5216706;28;20029;-81
2022/02/11 13:42:13;;;;;;;4.20;1.63;;;;;;;5.78;100.00;101451.47;5224532;28;20098;-81
2022/02/11 13:45:00;;;;;;;3.53;1.85;;;;;;;5.65;100.00;101463.59;5229581;28;20032;-82
2022/02/11 13:47:30;;;;;;;5.80;2.85;;;;;;;5.50;100.00;101473.09;5229043;28;20028;-81
2022/02/11 13:50:03;;;;;;;2.83;1.88;;;;;;;5.56;100.00;101478.31;5232510;28;20029;-80
2022/02/11 13:53:02;;;;;;;3.78;2.05;;;;;;;5.57;100.00;101483.47;5233351;28;20024;-80
2022/02/11 13:55:32;;;;;;;3.10;1.70;;;;;;;5.57;100.00;101498.19;5222112;28;20587;-81
2022/02/11 13:58:16;;;;;;;4.10;2.30;;;;;;;5.48;100.00;101517.19;5227601;28;20060;-80
2022/02/11 14:00:46;;;;;;;3.25;1.98;;;;;;;5.49;100.00;101523.22;5234694;28;20501;-81
2022/02/11 14:03:26;;;;;;;2.63;1.73;;;;;;;5.37;100.00;101540.50;5232386;28;20040;-81
2022/02/11 14:06:04;;;;;;;3.47;2.00;;;;;;;5.38;100.00;101534.44;5227137;28;20069;-81
2022/02/11 14:08:42;;;;;;;3.35;2.08;;;;;;;5.33;100.00;101552.59;5225328;28;20041;-81
2022/02/11 14:11:15;;;;;;;4.50;2.17;;;;;;;5.31;100.00;101569.88;5227400;28;20085;-80
2022/02/11 14:13:47;;;;;;;4.45;2.38;;;;;;;5.37;100.00;101584.56;5234510;28;20036;-81
2022/02/11 14:16:18;;;;;;;4.50;2.53;;;;;;;5.33;100.00;101588.03;5232576;28;20383;-81
2022/02/11 14:18:48;;;;;;;5.95;3.03;;;;;;;5.30;100.00;101603.56;5231631;28;20036;-80
2022/02/11 14:21:19;;;;;;;4.50;2.88;;;;;;;5.25;100.00;101606.16;5231352;28;20483;-81
2022/02/11 14:24:11;;;;;;;5.90;2.95;;;;;;;5.10;100.00;101616.47;5228639;28;20131;-80
2022/02/11 14:26:42;;;;;;;5.78;3.10;;;;;;;4.96;100.00;101628.50;5221956;28;20563;-80
2022/02/11 14:29:12;;;;;;;3.90;2.65;;;;;;;5.00;100.00;101640.59;5230922;28;20039;-80
2022/02/11 14:31:43;;;;;;;5.57;3.25;;;;;;;4.97;100.00;101656.13;5233335;28;20028;-80
2022/02/11 14:34:15;;;;;;;5.05;3.17;;;;;;;5.02;100.00;101667.41;5227656;28;20040;-80
2022/02/11 14:36:46;;;;;;;5.80;3.78;;;;;;;4.93;100.00;101663.88;5223005;28;20433;-81
2022/02/11 14:39:17;;;;;;;6.85;3.65;;;;;;;4.93;100.00;101687.19;5226629;28;20382;-80
2022/02/11 14:41:55;;;;;;;6.72;4.32;;;;;;;4.94;100.00;101687.19;5223140;28;20025;-81
2022/02/11 14:44:30;;;;;;;6.53;4.07;;;;;;;4.96;100.00;101690.66;5230543;28;20546;-81
2022/02/11 14:47:02;;;;;;;5.97;3.83;;;;;;;4.98;100.00;101696.72;5228556;28;20029;-81
2022/02/11 14:49:33;;;;;;;6.90;4.00;;;;;;;5.00;100.00;101713.13;5234297;28;20028;-81
2022/02/11 14:52:05;;;;;;;6.40;4.30;;;;;;;4.88;100.00;101723.44;5231965;28;20445;-80
2022/02/11 14:54:36;;;;;;;6.13;4.35;;;;;;;4.95;100.00;101716.56;5229121;28;20044;-80
2022/02/11 14:57:07;;;;;;;7.13;4.40;;;;;;;4.99;100.00;101726.09;5229851;28;20490;-80
2022/02/11 14:59:38;;;;;;;7.30;4.65;;;;;;;4.93;100.00;101737.28;5233597;28;20129;-81
2022/02/11 15:02:08;;;;;;;7.45;4.45;;;;;;;4.96;100.00;101742.47;5231975;28;20286;-81
2022/02/11 15:04:38;;;;;;;7.40;4.30;;;;;;;4.96;100.00;101752.81;5232836;28;20464;-81
2022/02/11 15:07:09;;;;;;;6.30;4.13;;;;;;;4.88;100.00;101759.69;5230761;28;20025;-80
2022/02/11 15:09:39;;;;;;;8.52;4.07;;;;;;;4.95;100.00;101756.28;5219009;28;20303;-81
2022/02/11 15:12:09;;;;;;;6.22;3.90;;;;;;;5.01;100.00;101782.19;5222227;28;20025;-81
2022/02/11 15:14:40;;;;;;;6.45;4.20;;;;;;;4.99;100.00;101789.09;5222970;28;20025;-81
2022/02/11 15:17:11;;;;;;;8.00;4.57;;;;;;;5.01;100.00;101789.97;5224485;28;20033;-80
2022/02/11 15:19:41;;;;;;;5.57;4.47;;;;;;;4.99;100.00;101796.88;5222966;28;20139;-81
2022/02/11 15:22:13;;;;;;;6.63;4.32;;;;;;;5.06;100.00;101803.84;5227920;28;20166;-81
2022/02/11 15:24:48;;;;;;;7.93;3.83;;;;;;;5.04;100.00;101808.16;5226230;28;20483;-81
2022/02/11 15:27:19;;;;;;;7.10;3.95;;;;;;;5.06;100.00;101814.19;5214883;28;21537;-81
2022/02/11 15:29:49;;;;;;;6.95;3.47;;;;;;;4.99;100.00;101816.75;5219809;28;20041;-81
2022/02/11 15:32:19;;;;;;;7.55;4.03;;;;;;;5.04;100.00;101820.22;5218144;28;20430;-81
2022/02/11 15:34:49;;;;;;;9.70;4.15;;;;;;;5.05;100.00;101830.59;5218484;28;20041;-81